Monday, August 20, 2018, 1:17 AM EDT
Back to Local

KAQW, N Adams Harriman-and-west

Location: North Adams, MA, United States Lat: 42.7
Local Time: 1:17 AM EDT ( 5:17 GMT) Lon: -73.167
Time Zone: US/Eastern Elev: 652 ft

Show me the last for .
Show Decoded

2018-08-20 00:52 METAR KAQW 200452Z AUTO 00000KT 10SM CLR 15/13 A3016 RMK AO2 SLP210 T01500133
                 402440150 =
2018-08-19 23:52 METAR KAQW 200352Z AUTO 00000KT 10SM CLR 17/14 A3015 RMK AO2 SLP207 T01670139 =
2018-08-19 22:52 METAR KAQW 200252Z AUTO 07003KT 10SM CLR 17/14 A3014 RMK AO2 SLP205 T01720144
                 51015 =
2018-08-19 21:52 METAR KAQW 200152Z AUTO 00000KT 10SM CLR 17/14 A3013 RMK AO2 SLP202 T01720144 =
2018-08-19 20:52 METAR KAQW 200052Z AUTO 10003KT 10SM CLR 17/14 A3011 RMK AO2 SLP196 T01720144 =
2018-08-19 19:52 METAR KAQW 192352Z AUTO 00000KT 10SM CLR 19/16 A3010 RMK AO2 SLP191 T01890161
                 10244 20189 53017 =
2018-08-19 18:52 METAR KAQW 192252Z AUTO 00000KT 10SM CLR 22/15 A3008 RMK AO2 SLP183 T02170150 =
2018-08-19 17:52 METAR KAQW 192152Z AUTO 13005KT 10SM CLR 23/14 A3006 RMK AO2 SLP178 T02280139 =
2018-08-19 16:52 METAR KAQW 192052Z AUTO 12007KT 10SM FEW055 24/13 A3005 RMK AO2 SLP173 T02390133
                 53001 =
2018-08-19 15:52 METAR KAQW 191952Z AUTO 13011KT 10SM FEW050 24/13 A3004 RMK AO2 SLP169 T02440133
                 =
2018-08-19 14:52 METAR KAQW 191852Z AUTO 14005KT 10SM CLR 24/13 A3004 RMK AO2 SLP171 T02390133 =
2018-08-19 13:52 METAR KAQW 191752Z AUTO 11012G17KT 10SM FEW050 24/13 A3004 RMK AO2 SLP171
                 T02390128 10239 20194 53000 =
2018-08-19 12:52 METAR KAQW 191652Z AUTO VRB06KT 10SM BKN045 23/13 A3004 RMK AO2 SLP172 T02330133
                 =
2018-08-19 11:52 METAR KAQW 191552Z AUTO 09008G15KT 040V110 10SM SCT043 23/13 A3004 RMK AO2
                 SLP171 T02280133 =
2018-08-19 10:52 METAR KAQW 191452Z AUTO 10009KT 10SM CLR 22/13 A3004 RMK AO2 SLP171 T02220128
                 51011 =
2018-08-19 09:52 METAR KAQW 191352Z AUTO 08007KT 040V110 10SM FEW039 22/13 A3004 RMK AO2 SLP170
                 T02170133 =
2018-08-19 08:52 METAR KAQW 191252Z AUTO 10008G15KT 10SM CLR 21/14 A3003 RMK AO2 SLP166 T02060139
                 =
2018-08-19 07:52 METAR KAQW 191152Z AUTO VRB04KT 10SM CLR 19/13 A3001 RMK AO2 SLP161 70007
                 T01940133 10200 20189 53016 =
2018-08-19 06:52 METAR KAQW 191052Z AUTO VRB03KT 10SM FEW030 BKN070 19/14 A3000 RMK AO2 SLP156
                 T01890139 =
2018-08-19 05:52 METAR KAQW 190952Z AUTO 09007KT 10SM FEW031 OVC065 19/14 A2997 RMK AO2 SLP149
                 T01940139 =
2018-08-19 04:52 METAR KAQW 190852Z AUTO VRB06KT 10SM FEW031 SCT048 OVC065 19/14 A2996 RMK AO2
                 SLP144 T01940139 53008 =
2018-08-19 04:39 METAR KAQW 190839Z AUTO VRB06KT 10SM SCT029 SCT050 OVC065 19/14 A2996 RMK AO2
                 T01940139 =
2018-08-19 04:25 METAR KAQW 190825Z AUTO 09006KT 10SM BKN029 OVC070 19/14 A2996 RMK AO2 T01940144
                 =
2018-08-19 03:52 METAR KAQW 190752Z AUTO 10005KT 10SM BKN030 OVC035 19/14 A2996 RMK AO2 SLP142
                 T01940144 =
2018-08-19 03:34 METAR KAQW 190734Z AUTO 10006KT 10SM OVC030 19/14 A2995 RMK AO2 T01940144 =
2018-08-19 02:52 METAR KAQW 190652Z AUTO 10006KT 10SM OVC027 19/14 A2994 RMK AO2 SLP137 T01940144
                 =
2018-08-19 01:52 METAR KAQW 190552Z AUTO VRB06KT 10SM BKN027 OVC034 20/14 A2994 RMK AO2 SLP136
                 T02000144 10200 20183 53006 =

Support USWX by starting your Amazon purchase here.